sensor_id;sensor_type;location;lat;lon;timestamp;pressure;altitude;pressure_sealevel;temperature;humidity
72721;BME280;60835;50.974;10.322;2023-06-24T00:02:00;97487.56;;;14.82;100.00
72721;BME280;60835;50.974;10.322;2023-06-24T00:04:28;97498.63;;;14.92;100.00
72721;BME280;60835;50.974;10.322;2023-06-24T00:06:54;97517.44;;;14.84;100.00
72721;BME280;60835;50.974;10.322;2023-06-24T00:09:23;97512.13;;;14.84;100.00
72721;BME280;60835;50.974;10.322;2023-06-24T00:11:49;97509.88;;;14.87;100.00
72721;BME280;60835;50.974;10.322;2023-06-24T00:14:16;97501.47;;;14.84;100.00
72721;BME280;60835;50.974;10.322;2023-06-24T00:16:43;97528.09;;;14.71;100.00
72721;BME280;60835;50.974;10.322;2023-06-24T00:19:09;97525.44;;;14.77;100.00
72721;BME280;60835;50.974;10.322;2023-06-24T00:21:36;97535.03;;;14.65;100.00
72721;BME280;60835;50.974;10.322;2023-06-24T00:24:04;97529.72;;;14.58;100.00
72721;BME280;60835;50.974;10.322;2023-06-24T00:26:31;97537.69;;;14.58;100.00
72721;BME280;60835;50.974;10.322;2023-06-24T00:28:58;97535.03;;;14.58;100.00
72721;BME280;60835;50.974;10.322;2023-06-24T00:31:25;97544.81;;;14.51;100.00
72721;BME280;60835;50.974;10.322;2023-06-24T00:33:52;97526.63;;;14.55;100.00
72721;BME280;60835;50.974;10.322;2023-06-24T00:36:20;97539.72;;;14.50;100.00
72721;BME280;60835;50.974;10.322;2023-06-24T00:38:46;97545.66;;;14.52;100.00
72721;BME280;60835;50.974;10.322;2023-06-24T00:41:16;97544.03;;;14.57;100.00
72721;BME280;60835;50.974;10.322;2023-06-24T00:43:45;97555.66;;;14.43;100.00
72721;BME280;60835;50.974;10.322;2023-06-24T00:46:12;97558.75;;;14.47;100.00
72721;BME280;60835;50.974;10.322;2023-06-24T00:48:40;97565.88;;;14.46;100.00
72721;BME280;60835;50.974;10.322;2023-06-24T00:51:06;97568.56;;;14.46;100.00
72721;BME280;60835;50.974;10.322;2023-06-24T00:53:33;97568.56;;;14.46;100.00
72721;BME280;60835;50.974;10.322;2023-06-24T00:56:00;97574.25;;;14.37;100.00
72721;BME280;60835;50.974;10.322;2023-06-24T00:58:31;97597.78;;;13.99;100.00
72721;BME280;60835;50.974;10.322;2023-06-24T01:00:59;97594.50;;;13.97;100.00
72721;BME280;60835;50.974;10.322;2023-06-24T01:03:25;97559.03;;;14.24;100.00
72721;BME280;60835;50.974;10.322;2023-06-24T01:05:54;97563.94;;;14.27;100.00
72721;BME280;60835;50.974;10.322;2023-06-24T01:08:20;97558.69;;;14.34;100.00
72721;BME280;60835;50.974;10.322;2023-06-24T01:10:49;97564.03;;;14.40;100.00
72721;BME280;60835;50.974;10.322;2023-06-24T01:13:17;97574.19;;;14.30;100.00
72721;BME280;60835;50.974;10.322;2023-06-24T01:15:44;97604.97;;;14.05;100.00
72721;BME280;60835;50.974;10.322;2023-06-24T01:18:38;97615.31;;;13.93;100.00
72721;BME280;60835;50.974;10.322;2023-06-24T01:21:15;97589.63;;;14.07;100.00
72721;BME280;60835;50.974;10.322;2023-06-24T01:31:59;97545.47;;;14.13;100.00
72721;BME280;60835;50.974;10.322;2023-06-24T01:34:32;97563.09;;;14.14;100.00
72721;BME280;60835;50.974;10.322;2023-06-24T01:37:20;97594.94;;;13.73;100.00
72721;BME280;60835;50.974;10.322;2023-06-24T01:39:52;97555.63;;;13.96;100.00
72721;BME280;60835;50.974;10.322;2023-06-24T01:42:22;97529.91;;;14.10;100.00
72721;BME280;60835;50.974;10.322;2023-06-24T01:44:49;97539.16;;;14.14;100.00
72721;BME280;60835;50.974;10.322;2023-06-24T01:47:21;97533.66;;;14.28;100.00
72721;BME280;60835;50.974;10.322;2023-06-24T01:49:52;97529.59;;;14.32;100.00
72721;BME280;60835;50.974;10.322;2023-06-24T01:52:23;97534.75;;;14.34;100.00
72721;BME280;60835;50.974;10.322;2023-06-24T01:54:52;97564.91;;;14.13;100.00
72721;BME280;60835;50.974;10.322;2023-06-24T01:57:22;97559.59;;;14.13;100.00
72721;BME280;60835;50.974;10.322;2023-06-24T01:59:49;97564.63;;;13.95;100.00
72721;BME280;60835;50.974;10.322;2023-06-24T02:02:18;97570.19;;;14.00;100.00
72721;BME280;60835;50.974;10.322;2023-06-24T02:04:48;97576.88;;;13.96;100.00
72721;BME280;60835;50.974;10.322;2023-06-24T02:07:17;97571.22;;;14.06;100.00
72721;BME280;60835;50.974;10.322;2023-06-24T02:09:45;97562.44;;;14.05;100.00
72721;BME280;60835;50.974;10.322;2023-06-24T02:12:20;97576.88;;;13.96;100.00
72721;BME280;60835;50.974;10.322;2023-06-24T02:14:49;97579.31;;;13.91;100.00
72721;BME280;60835;50.974;10.322;2023-06-24T02:17:17;97581.34;;;13.89;100.00
72721;BME280;60835;50.974;10.322;2023-06-24T02:19:44;97585.63;;;13.83;100.00
72721;BME280;60835;50.974;10.322;2023-06-24T02:22:11;97577.19;;;13.80;100.00
72721;BME280;60835;50.974;10.322;2023-06-24T02:24:40;97572.53;;;13.82;100.00
72721;BME280;60835;50.974;10.322;2023-06-24T02:27:08;97573.91;;;13.78;100.00
72721;BME280;60835;50.974;10.322;2023-06-24T02:29:36;97562.50;;;13.84;100.00
72721;BME280;60835;50.974;10.322;2023-06-24T02:32:03;97573.53;;;13.81;100.00
72721;BME280;60835;50.974;10.322;2023-06-24T02:34:30;97578.69;;;13.61;100.00
72721;BME280;60835;50.974;10.322;2023-06-24T02:36:57;97601.19;;;13.59;100.00
72721;BME280;60835;50.974;10.322;2023-06-24T02:39:24;97593.06;;;13.67;100.00
72721;BME280;60835;50.974;10.322;2023-06-24T02:41:50;97598.38;;;13.67;100.00
72721;BME280;60835;50.974;10.322;2023-06-24T02:44:17;97592.88;;;13.68;100.00
72721;BME280;60835;50.974;10.322;2023-06-24T02:46:45;97586.66;;;13.55;100.00
72721;BME280;60835;50.974;10.322;2023-06-24T02:49:15;97591.84;;;13.69;100.00
72721;BME280;60835;50.974;10.322;2023-06-24T02:51:42;97605.28;;;13.61;100.00
72721;BME280;60835;50.974;10.322;2023-06-24T02:54:09;97603.44;;;13.62;100.00
72721;BME280;60835;50.974;10.322;2023-06-24T02:56:36;97601.66;;;13.69;100.00
72721;BME280;60835;50.974;10.322;2023-06-24T02:59:07;97601.56;;;13.56;100.00
72721;BME280;60835;50.974;10.322;2023-06-24T03:01:35;97598.28;;;13.54;100.00
72721;BME280;60835;50.974;10.322;2023-06-24T03:04:05;97591.75;;;13.56;100.00
72721;BME280;60835;50.974;10.322;2023-06-24T03:06:32;97607.28;;;13.53;100.00
72721;BME280;60835;50.974;10.322;2023-06-24T03:09:03;97602.22;;;13.58;100.00
72721;BME280;60835;50.974;10.322;2023-06-24T03:11:30;97591.81;;;13.63;100.00
72721;BME280;60835;50.974;10.322;2023-06-24T03:13:56;97587.34;;;13.63;100.00
72721;BME280;60835;50.974;10.322;2023-06-24T03:16:23;97592.19;;;13.60;100.00
72721;BME280;60835;50.974;10.322;2023-06-24T03:18:49;97579.44;;;13.49;100.00
72721;BME280;60835;50.974;10.322;2023-06-24T03:21:16;97578.69;;;13.55;100.00
72721;BME280;60835;50.974;10.322;2023-06-24T03:23:42;97587.72;;;13.60;100.00
72721;BME280;60835;50.974;10.322;2023-06-24T03:26:09;97588.47;;;13.54;100.00
72721;BME280;60835;50.974;10.322;2023-06-24T03:28:36;97574.97;;;13.56;100.00
72721;BME280;60835;50.974;10.322;2023-06-24T03:31:02;97582.44;;;13.67;100.00
72721;BME280;60835;50.974;10.322;2023-06-24T03:33:30;97579.97;;;13.65;100.00
72721;BME280;60835;50.974;10.322;2023-06-24T03:35:57;97574.69;;;13.72;100.00
72721;BME280;60835;50.974;10.322;2023-06-24T03:38:23;97593.03;;;13.60;100.00
72721;BME280;60835;50.974;10.322;2023-06-24T03:40:50;97583.03;;;13.62;100.00
72721;BME280;60835;50.974;10.322;2023-06-24T03:43:16;97595.09;;;13.65;100.00
72721;BME280;60835;50.974;10.322;2023-06-24T03:45:43;97596.34;;;13.69;100.00
72721;BME280;60835;50.974;10.322;2023-06-24T03:48:10;97603.75;;;13.73;100.00
72721;BME280;60835;50.974;10.322;2023-06-24T03:50:36;97610.66;;;13.68;100.00
72721;BME280;60835;50.974;10.322;2023-06-24T03:53:04;97609.38;;;13.64;100.00
72721;BME280;60835;50.974;10.322;2023-06-24T03:55:30;97624.53;;;13.63;100.00
72721;BME280;60835;50.974;10.322;2023-06-24T03:57:57;97654.72;;;13.56;100.00
72721;BME280;60835;50.974;10.322;2023-06-24T04:00:23;97655.63;;;13.69;100.00
72721;BME280;60835;50.974;10.322;2023-06-24T04:02:50;97678.09;;;13.67;100.00
72721;BME280;60835;50.974;10.322;2023-06-24T04:05:20;97687.50;;;13.63;100.00
72721;BME280;60835;50.974;10.322;2023-06-24T04:07:46;97709.13;;;13.60;100.00
72721;BME280;60835;50.974;10.322;2023-06-24T04:10:13;97707.47;;;13.59;100.00
72721;BME280;60835;50.974;10.322;2023-06-24T04:12:40;97702.66;;;13.69;100.00
72721;BME280;60835;50.974;10.322;2023-06-24T04:15:07;97722.28;;;13.68;100.00
72721;BME280;60835;50.974;10.322;2023-06-24T04:17:34;97706.22;;;13.76;100.00
72721;BME280;60835;50.974;10.322;2023-06-24T04:20:01;97712.16;;;13.78;100.00
72721;BME280;60835;50.974;10.322;2023-06-24T04:22:30;97728.97;;;13.85;100.00
72721;BME280;60835;50.974;10.322;2023-06-24T04:24:56;97738.09;;;13.97;100.00
72721;BME280;60835;50.974;10.322;2023-06-24T04:27:23;97743.78;;;13.94;100.00
72721;BME280;60835;50.974;10.322;2023-06-24T04:29:49;97751.16;;;13.92;100.00
72721;BME280;60835;50.974;10.322;2023-06-24T04:32:16;97768.34;;;13.96;100.00
72721;BME280;60835;50.974;10.322;2023-06-24T04:34:42;97764.34;;;14.07;100.00
72721;BME280;60835;50.974;10.322;2023-06-24T04:37:09;97773.88;;;13.94;100.00
72721;BME280;60835;50.974;10.322;2023-06-24T04:39:36;97774.25;;;14.19;100.00
72721;BME280;60835;50.974;10.322;2023-06-24T04:42:02;97781.25;;;14.20;100.00
72721;BME280;60835;50.974;10.322;2023-06-24T04:44:29;97799.63;;;14.15;100.00
72721;BME280;60835;50.974;10.322;2023-06-24T04:46:56;97804.97;;;14.22;100.00
72721;BME280;60835;50.974;10.322;2023-06-24T04:49:22;97810.88;;;14.17;100.00
72721;BME280;60835;50.974;10.322;2023-06-24T04:51:49;97806.69;;;14.29;100.00
72721;BME280;60835;50.974;10.322;2023-06-24T04:54:15;97818.81;;;14.11;100.00
72721;BME280;60835;50.974;10.322;2023-06-24T04:56:42;97816.44;;;14.43;100.00
72721;BME280;60835;50.974;10.322;2023-06-24T04:59:09;97801.22;;;14.58;100.00
72721;BME280;60835;50.974;10.322;2023-06-24T05:01:35;97822.97;;;14.69;100.00
72721;BME280;60835;50.974;10.322;2023-06-24T05:04:02;97839.13;;;14.67;100.00
72721;BME280;60835;50.974;10.322;2023-06-24T05:06:28;97836.63;;;14.87;100.00
72721;BME280;60835;50.974;10.322;2023-06-24T05:08:55;97851.41;;;14.96;100.00
72721;BME280;60835;50.974;10.322;2023-06-24T05:11:22;97865.28;;;14.85;100.00
72721;BME280;60835;50.974;10.322;2023-06-24T05:13:48;97877.25;;;15.02;100.00
72721;BME280;60835;50.974;10.322;2023-06-24T05:16:15;97874.91;;;15.20;100.00
72721;BME280;60835;50.974;10.322;2023-06-24T05:18:44;97878.13;;;15.43;100.00
72721;BME280;60835;50.974;10.322;2023-06-24T05:21:11;97914.94;;;15.33;100.00
72721;BME280;60835;50.974;10.322;2023-06-24T05:23:38;97935.66;;;15.31;100.00
72721;BME280;60835;50.974;10.322;2023-06-24T05:26:04;97946.31;;;15.31;100.00
72721;BME280;60835;50.974;10.322;2023-06-24T05:28:31;97954.78;;;15.41;100.00
72721;BME280;60835;50.974;10.322;2023-06-24T05:30:57;97951.50;;;15.39;100.00
72721;BME280;60835;50.974;10.322;2023-06-24T05:33:24;97958.59;;;15.53;100.00
72721;BME280;60835;50.974;10.322;2023-06-24T05:35:51;97987.03;;;15.46;100.00
72721;BME280;60835;50.974;10.322;2023-06-24T05:38:17;97987.53;;;15.63;100.00
72721;BME280;60835;50.974;10.322;2023-06-24T05:40:44;98017.84;;;15.55;100.00
72721;BME280;60835;50.974;10.322;2023-06-24T05:43:13;98021.03;;;15.72;100.00
72721;BME280;60835;50.974;10.322;2023-06-24T05:45:39;98020.38;;;15.63;100.00
72721;BME280;60835;50.974;10.322;2023-06-24T05:48:06;98034.41;;;15.78;100.00
72721;BME280;60835;50.974;10.322;2023-06-24T05:50:33;98031.88;;;16.05;100.00
72721;BME280;60835;50.974;10.322;2023-06-24T05:52:59;98005.63;;;16.62;100.00
72721;BME280;60835;50.974;10.322;2023-06-24T05:55:27;97996.06;;;17.91;100.00
72721;BME280;60835;50.974;10.322;2023-06-24T05:57:54;98068.78;;;18.52;100.00
72721;BME280;60835;50.974;10.322;2023-06-24T06:00:20;98197.34;;;18.32;100.00
72721;BME280;60835;50.974;10.322;2023-06-24T06:02:47;98228.94;;;19.01;100.00
72721;BME280;60835;50.974;10.322;2023-06-24T06:05:14;98291.84;;;19.56;100.00
72721;BME280;60835;50.974;10.322;2023-06-24T06:07:40;98350.19;;;20.04;100.00
72721;BME280;60835;50.974;10.322;2023-06-24T06:10:08;98404.72;;;20.12;100.00
72721;BME280;60835;50.974;10.322;2023-06-24T06:12:35;98467.31;;;20.05;100.00
72721;BME280;60835;50.974;10.322;2023-06-24T06:15:01;98495.63;;;20.01;100.00
72721;BME280;60835;50.974;10.322;2023-06-24T06:17:28;98536.09;;;20.13;100.00
72721;BME280;60835;50.974;10.322;2023-06-24T06:19:55;98536.34;;;20.56;100.00
72721;BME280;60835;50.974;10.322;2023-06-24T06:22:35;98575.75;;;20.69;100.00
72721;BME280;60835;50.974;10.322;2023-06-24T06:25:05;98605.19;;;20.57;100.00
72721;BME280;60835;50.974;10.322;2023-06-24T06:27:32;98658.50;;;20.67;100.00
72721;BME280;60835;50.974;10.322;2023-06-24T06:29:59;98685.88;;;20.95;100.00
72721;BME280;60835;50.974;10.322;2023-06-24T06:32:26;98710.31;;;20.93;100.00
72721;BME280;60835;50.974;10.322;2023-06-24T06:34:53;98749.59;;;20.94;100.00
72721;BME280;60835;50.974;10.322;2023-06-24T06:37:19;98750.19;;;21.47;100.00
72721;BME280;60835;50.974;10.322;2023-06-24T06:39:45;98817.00;;;21.19;100.00
72721;BME280;60835;50.974;10.322;2023-06-24T06:42:12;98798.91;;;21.77;100.00
72721;BME280;60835;50.974;10.322;2023-06-24T06:44:40;98826.25;;;22.61;100.00
72721;BME280;60835;50.974;10.322;2023-06-24T06:47:07;98869.34;;;22.18;100.00
72721;BME280;60835;50.974;10.322;2023-06-24T06:49:37;98862.88;;;22.75;100.00
72721;BME280;60835;50.974;10.322;2023-06-24T06:52:05;98867.16;;;23.08;100.00
72721;BME280;60835;50.974;10.322;2023-06-24T06:54:32;98872.06;;;23.83;100.00
72721;BME280;60835;50.974;10.322;2023-06-24T06:57:02;98907.03;;;23.06;100.00
72721;BME280;60835;50.974;10.322;2023-06-24T06:59:31;98892.66;;;23.66;100.00
72721;BME280;60835;50.974;10.322;2023-06-24T07:01:57;98899.84;;;23.18;100.00
72721;BME280;60835;50.974;10.322;2023-06-24T07:04:24;98897.31;;;23.59;100.00
72721;BME280;60835;50.974;10.322;2023-06-24T07:06:51;98923.59;;;24.00;100.00
72721;BME280;60835;50.974;10.322;2023-06-24T07:09:18;98939.41;;;23.85;100.00
72721;BME280;60835;50.974;10.322;2023-06-24T07:11:44;98939.34;;;24.51;100.00
72721;BME280;60835;50.974;10.322;2023-06-24T07:14:11;98951.88;;;24.75;100.00
72721;BME280;60835;50.974;10.322;2023-06-24T07:16:39;98949.34;;;25.03;100.00
72721;BME280;60835;50.974;10.322;2023-06-24T07:19:06;98981.06;;;23.77;100.00
72721;BME280;60835;50.974;10.322;2023-06-24T07:21:33;98979.63;;;23.56;100.00
72721;BME280;60835;50.974;10.322;2023-06-24T07:23:59;98969.50;;;24.06;100.00
72721;BME280;60835;50.974;10.322;2023-06-24T07:26:26;98965.88;;;24.12;100.00
72721;BME280;60835;50.974;10.322;2023-06-24T07:28:56;98936.41;;;23.56;100.00
72721;BME280;60835;50.974;10.322;2023-06-24T07:31:36;99000.47;;;23.49;100.00
72721;BME280;60835;50.974;10.322;2023-06-24T07:34:03;98932.78;;;24.17;100.00
72721;BME280;60835;50.974;10.322;2023-06-24T07:36:30;98894.34;;;24.27;100.00
72721;BME280;60835;50.974;10.322;2023-06-24T07:38:57;98869.72;;;24.58;100.00
72721;BME280;60835;50.974;10.322;2023-06-24T07:41:23;98888.59;;;23.93;100.00
72721;BME280;60835;50.974;10.322;2023-06-24T07:43:50;98988.22;;;24.67;100.00
72721;BME280;60835;50.974;10.322;2023-06-24T07:46:17;99158.22;;;24.89;100.00
72721;BME280;60835;50.974;10.322;2023-06-24T07:48:43;99290.09;;;25.66;100.00
72721;BME280;60835;50.974;10.322;2023-06-24T07:51:10;99397.44;;;24.63;100.00
72721;BME280;60835;50.974;10.322;2023-06-24T07:53:37;99466.97;;;24.62;100.00
72721;BME280;60835;50.974;10.322;2023-06-24T07:56:03;99451.22;;;24.84;100.00
72721;BME280;60835;50.974;10.322;2023-06-24T07:58:30;99477.94;;;26.32;100.00
72721;BME280;60835;50.974;10.322;2023-06-24T08:00:56;99683.06;;;26.70;100.00
72721;BME280;60835;50.974;10.322;2023-06-24T08:03:23;99775.44;;;25.95;100.00
72721;BME280;60835;50.974;10.322;2023-06-24T08:05:50;99807.34;;;25.18;100.00
72721;BME280;60835;50.974;10.322;2023-06-24T08:08:16;99780.81;;;26.27;100.00
72721;BME280;60835;50.974;10.322;2023-06-24T08:10:55;99827.19;;;26.25;100.00
72721;BME280;60835;50.974;10.322;2023-06-24T08:13:24;99822.94;;;24.39;100.00
72721;BME280;60835;50.974;10.322;2023-06-24T08:15:51;99791.22;;;27.09;100.00
72721;BME280;60835;50.974;10.322;2023-06-24T08:18:17;99856.22;;;27.29;100.00
72721;BME280;60835;50.974;10.322;2023-06-24T08:20:44;99873.31;;;27.65;100.00
72721;BME280;60835;50.974;10.322;2023-06-24T08:23:10;99866.78;;;27.55;100.00
72721;BME280;60835;50.974;10.322;2023-06-24T08:25:37;99896.94;;;26.68;100.00
72721;BME280;60835;50.974;10.322;2023-06-24T08:28:04;99871.19;;;28.27;100.00
72721;BME280;60835;50.974;10.322;2023-06-24T08:30:30;99909.41;;;28.32;100.00
72721;BME280;60835;50.974;10.322;2023-06-24T08:32:58;99903.81;;;28.68;100.00
72721;BME280;60835;50.974;10.322;2023-06-24T08:35:24;99920.97;;;28.16;100.00
72721;BME280;60835;50.974;10.322;2023-06-24T08:37:51;99911.50;;;27.89;100.00
72721;BME280;60835;50.974;10.322;2023-06-24T08:40:18;99899.56;;;28.95;100.00
72721;BME280;60835;50.974;10.322;2023-06-24T08:42:44;99911.59;;;28.12;100.00
72721;BME280;60835;50.974;10.322;2023-06-24T08:45:11;99917.56;;;27.72;100.00
72721;BME280;60835;50.974;10.322;2023-06-24T08:47:38;99923.28;;;28.42;100.00
72721;BME280;60835;50.974;10.322;2023-06-24T08:50:11;99928.59;;;27.05;100.00
72721;BME280;60835;50.974;10.322;2023-06-24T08:52:42;99890.25;;;26.45;100.00
72721;BME280;60835;50.974;10.322;2023-06-24T08:55:10;99891.09;;;27.32;100.00
72721;BME280;60835;50.974;10.322;2023-06-24T08:57:39;99917.44;;;29.15;100.00
72721;BME280;60835;50.974;10.322;2023-06-24T09:00:07;99932.84;;;27.55;100.00
72721;BME280;60835;50.974;10.322;2023-06-24T09:02:37;99916.78;;;28.02;100.00
72721;BME280;60835;50.974;10.322;2023-06-24T09:05:06;99910.34;;;28.90;100.00
72721;BME280;60835;50.974;10.322;2023-06-24T09:07:33;99922.63;;;29.05;100.00
72721;BME280;60835;50.974;10.322;2023-06-24T09:10:00;99939.53;;;27.89;100.00
72721;BME280;60835;50.974;10.322;2023-06-24T09:12:27;99937.88;;;30.03;100.00
72721;BME280;60835;50.974;10.322;2023-06-24T09:14:57;99928.75;;;27.83;100.00
72721;BME280;60835;50.974;10.322;2023-06-24T09:17:24;99902.56;;;28.29;100.00
72721;BME280;60835;50.974;10.322;2023-06-24T09:19:51;99924.91;;;30.39;100.00
72721;BME280;60835;50.974;10.322;2023-06-24T09:22:17;99920.25;;;31.06;100.00
72721;BME280;60835;50.974;10.322;2023-06-24T09:24:46;99927.97;;;29.34;100.00
72721;BME280;60835;50.974;10.322;2023-06-24T09:27:17;99932.13;;;30.33;100.00
72721;BME280;60835;50.974;10.322;2023-06-24T09:29:48;99946.44;;;30.52;100.00
72721;BME280;60835;50.974;10.322;2023-06-24T09:32:15;99930.59;;;30.09;100.00
72721;BME280;60835;50.974;10.322;2023-06-24T09:34:43;99929.66;;;28.36;100.00
72721;BME280;60835;50.974;10.322;2023-06-24T09:37:09;99933.03;;;29.54;100.00
72721;BME280;60835;50.974;10.322;2023-06-24T09:39:39;99929.75;;;29.40;100.00
72721;BME280;60835;50.974;10.322;2023-06-24T09:42:06;99926.88;;;29.87;100.00
72721;BME280;60835;50.974;10.322;2023-06-24T09:44:34;99918.66;;;29.98;100.00
72721;BME280;60835;50.974;10.322;2023-06-24T09:47:04;99930.50;;;30.82;100.00
72721;BME280;60835;50.974;10.322;2023-06-24T09:49:31;99921.75;;;30.80;100.00
72721;BME280;60835;50.974;10.322;2023-06-24T09:51:59;99927.00;;;30.20;100.00
72721;BME280;60835;50.974;10.322;2023-06-24T09:54:28;99929.88;;;30.75;100.00
72721;BME280;60835;50.974;10.322;2023-06-24T09:57:02;99925.72;;;30.89;100.00
72721;BME280;60835;50.974;10.322;2023-06-24T09:59:30;99923.06;;;31.49;100.00
72721;BME280;60835;50.974;10.322;2023-06-24T10:02:00;99924.75;;;32.25;100.00
72721;BME280;60835;50.974;10.322;2023-06-24T10:04:31;99920.44;;;31.59;100.00
72721;BME280;60835;50.974;10.322;2023-06-24T10:06:57;99931.50;;;31.09;100.00
72721;BME280;60835;50.974;10.322;2023-06-24T10:09:25;99910.81;;;31.13;100.00
72721;BME280;60835;50.974;10.322;2023-06-24T10:11:51;99916.53;;;31.33;100.00
72721;BME280;60835;50.974;10.322;2023-06-24T10:14:18;99912.16;;;31.76;100.00
72721;BME280;60835;50.974;10.322;2023-06-24T10:16:44;99928.03;;;31.74;100.00
72721;BME280;60835;50.974;10.322;2023-06-24T10:19:19;99917.44;;;30.67;100.00
72721;BME280;60835;50.974;10.322;2023-06-24T10:21:57;99922.59;;;32.27;100.00
72721;BME280;60835;50.974;10.322;2023-06-24T10:24:34;99921.31;;;32.08;100.00
72721;BME280;60835;50.974;10.322;2023-06-24T10:27:07;99906.31;;;29.28;100.00
72721;BME280;60835;50.974;10.322;2023-06-24T10:29:36;99907.66;;;30.88;100.00
72721;BME280;60835;50.974;10.322;2023-06-24T10:37:14;99909.53;;;29.53;100.00
72721;BME280;60835;50.974;10.322;2023-06-24T10:42:28;99874.94;;;30.10;100.00
72721;BME280;60835;50.974;10.322;2023-06-24T10:44:57;99886.06;;;30.87;100.00
72721;BME280;60835;50.974;10.322;2023-06-24T10:47:26;99890.03;;;32.04;100.00
72721;BME280;60835;50.974;10.322;2023-06-24T10:49:53;99894.63;;;32.25;100.00
72721;BME280;60835;50.974;10.322;2023-06-24T10:52:21;99886.56;;;32.40;100.00
72721;BME280;60835;50.974;10.322;2023-06-24T10:54:49;99886.28;;;31.02;100.00
72721;BME280;60835;50.974;10.322;2023-06-24T10:57:21;99882.31;;;30.09;100.00
72721;BME280;60835;50.974;10.322;2023-06-24T10:59:50;99879.09;;;31.34;100.00
72721;BME280;60835;50.974;10.322;2023-06-24T11:02:19;99872.66;;;31.67;100.00
72721;BME280;60835;50.974;10.322;2023-06-24T11:04:50;99871.38;;;31.09;100.00
72721;BME280;60835;50.974;10.322;2023-06-24T11:07:18;99862.97;;;30.77;100.00
72721;BME280;60835;50.974;10.322;2023-06-24T11:09:58;99866.41;;;29.50;100.00
72721;BME280;60835;50.974;10.322;2023-06-24T11:12:27;99865.13;;;30.26;100.00
72721;BME280;60835;50.974;10.322;2023-06-24T11:15:13;99857.47;;;29.15;100.00
72721;BME280;60835;50.974;10.322;2023-06-24T11:17:40;99853.00;;;31.48;100.00
72721;BME280;60835;50.974;10.322;2023-06-24T11:20:12;99860.84;;;30.63;100.00
72721;BME280;60835;50.974;10.322;2023-06-24T11:22:41;99845.50;;;30.29;100.00
72721;BME280;60835;50.974;10.322;2023-06-24T11:25:20;99852.06;;;29.71;100.00
72721;BME280;60835;50.974;10.322;2023-06-24T11:27:51;99836.16;;;30.25;100.00
72721;BME280;60835;50.974;10.322;2023-06-24T11:30:19;99839.72;;;31.57;100.00
72721;BME280;60835;50.974;10.322;2023-06-24T11:32:46;99850.31;;;31.10;100.00
72721;BME280;60835;50.974;10.322;2023-06-24T11:35:15;99846.25;;;32.04;100.00
72721;BME280;60835;50.974;10.322;2023-06-24T11:37:44;99836.16;;;31.34;100.00
72721;BME280;60835;50.974;10.322;2023-06-24T11:40:13;99843.03;;;32.12;100.00
72721;BME280;60835;50.974;10.322;2023-06-24T11:42:41;99837.84;;;31.89;100.00
72721;BME280;60835;50.974;10.322;2023-06-24T11:45:11;99823.59;;;30.57;100.00
72721;BME280;60835;50.974;10.322;2023-06-24T11:47:41;99827.28;;;30.84;100.00
72721;BME280;60835;50.974;10.322;2023-06-24T11:50:08;99827.09;;;32.41;100.00
72721;BME280;60835;50.974;10.322;2023-06-24T11:55:02;99827.00;;;32.26;100.00
72721;BME280;60835;50.974;10.322;2023-06-24T12:00:15;99827.81;;;31.24;100.00
72721;BME280;60835;50.974;10.322;2023-06-24T12:02:41;99805.66;;;30.66;100.00
72721;BME280;60835;50.974;10.322;2023-06-24T12:05:08;99823.19;;;31.47;100.00
72721;BME280;60835;50.974;10.322;2023-06-24T12:07:35;99818.53;;;33.06;100.00
72721;BME280;60835;50.974;10.322;2023-06-24T12:10:02;99814.84;;;31.15;100.00
72721;BME280;60835;50.974;10.322;2023-06-24T12:12:29;99812.88;;;32.81;100.00
72721;BME280;60835;50.974;10.322;2023-06-24T12:14:55;99814.91;;;33.62;100.00
72721;BME280;60835;50.974;10.322;2023-06-24T12:17:22;99801.88;;;32.76;100.00
72721;BME280;60835;50.974;10.322;2023-06-24T12:19:48;99808.91;;;34.01;100.00
72721;BME280;60835;50.974;10.322;2023-06-24T12:22:15;99810.22;;;32.96;100.00
72721;BME280;60835;50.974;10.322;2023-06-24T12:24:41;99800.13;;;34.49;100.00
72721;BME280;60835;50.974;10.322;2023-06-24T12:27:14;99800.00;;;32.86;100.00
72721;BME280;60835;50.974;10.322;2023-06-24T12:29:40;99778.59;;;32.36;100.00
72721;BME280;60835;50.974;10.322;2023-06-24T12:32:07;99804.81;;;33.06;100.00
72721;BME280;60835;50.974;10.322;2023-06-24T12:34:34;99797.69;;;34.12;100.00
72721;BME280;60835;50.974;10.322;2023-06-24T12:37:00;99797.72;;;31.24;100.00
72721;BME280;60835;50.974;10.322;2023-06-24T12:39:27;99795.56;;;31.48;100.00
72721;BME280;60835;50.974;10.322;2023-06-24T12:41:53;99787.59;;;32.69;100.00
72721;BME280;60835;50.974;10.322;2023-06-24T12:44:20;99791.00;;;32.91;100.00
72721;BME280;60835;50.974;10.322;2023-06-24T12:46:46;99781.88;;;32.38;100.00
72721;BME280;60835;50.974;10.322;2023-06-24T12:49:13;99784.06;;;33.30;100.00
72721;BME280;60835;50.974;10.322;2023-06-24T12:51:40;99787.22;;;32.18;100.00
72721;BME280;60835;50.974;10.322;2023-06-24T12:54:06;99776.50;;;31.53;100.00
72721;BME280;60835;50.974;10.322;2023-06-24T12:56:33;99772.56;;;33.33;100.00
72721;BME280;60835;50.974;10.322;2023-06-24T12:58:59;99775.28;;;32.71;100.00
72721;BME280;60835;50.974;10.322;2023-06-24T13:01:26;99774.06;;;33.04;100.00
72721;BME280;60835;50.974;10.322;2023-06-24T13:03:53;99778.03;;;33.33;100.00
72721;BME280;60835;50.974;10.322;2023-06-24T13:06:19;99772.81;;;33.37;100.00